Latest Coastal Weather Observations for Groote Eylandt Airport

IDD60701

Issued at 6:01 pm CST Friday 18 August 2017 (issued every 10 minutes, with the page automatically refreshed every 10 minutes)

About coastal observations | Map of coastal stations | Coastal observations for NT | Marine services | Other Formats
Station Details ID: 014518 Name: GROOTE EYLANDT AIRPORT Lat: -13.97 Lon: 136.46 Height: 13.7 m
Data from the previous 72 hours. | See also: Recent months at Groote Eylandt Airport
Date/Time
CST
Temp
°C
Wind Pressure Rain since
9am
mm
Weather Cloud Vis
km
Sea
Height
m
Swell
Dir  Spd
kts
Gust
kts
hPa Trend Height
m
Period
s
Dir
18/06:00pm 27.2 NW 6 10 1012.4 - 0.0 - - 10 - - - -
18/05:30pm 28.1 WNW 5 7 1012.4 - 0.0 - - 10 - - - -
18/05:00pm 27.9 W 7 11 1012.2 - 0.0 - - 10 - - - -
18/04:30pm 28.9 W 7 11 1012.0 - 0.0 - - 10 - - - -
18/04:00pm 28.8 W 7 11 1012.1 - 0.0 - - 10 - - - -
18/03:30pm 29.2 W 7 10 1012.1 - 0.0 - - 10 - - - -
18/03:00pm 29.6 WSW 6 11 1012.2 - 0.0 - - 10 - - - -
18/02:30pm 29.5 W 8 13 1012.4 - 0.0 - - 10 - - - -
18/02:00pm 29.7 WNW 8 13 1012.6 - 0.0 - - 10 - - - -
18/01:30pm 30.1 W 8 13 1012.9 - 0.0 - - 10 - - - -
18/01:00pm 29.5 W 7 13 1013.3 - 0.0 - - 10 - - - -
18/12:30pm 30.4 WNW 6 9 1013.7 - 0.0 - - 10 - - - -
18/12:00pm 30.5 SE 6 9 1014.1 - 0.0 - - 10 - - - -
18/11:30am 30.7 E 5 11 1014.7 - 0.0 - - 10 - - - -
18/11:00am 30.7 ENE 8 13 1015.2 - 0.0 - - 10 - - - -
18/10:30am 29.5 E 7 11 1015.5 - 0.0 - - 10 - - - -
18/10:00am 28.6 ESE 7 11 1015.8 - 0.0 - - 10 - - - -
18/09:30am 28.1 E 7 9 1015.7 - 0.0 - - 10 - - - -
18/09:00am 26.1 ESE 4 6 1015.6 - 0.0 - - 10 - - - -
18/08:30am 24.8 ESE 3 5 1015.3 - 0.0 - - 10 - - - -
18/08:00am 22.3 CALM 0 3 1014.9 - 0.0 - - 10 - - - -
18/07:30am 19.7 SE 2 4 1014.4 - 0.0 - - 10 - - - -
18/07:00am 17.5 ESE 3 4 1014.1 - 0.0 - - 10 - - - -
18/06:30am 17.0 CALM 0 0 1013.5 - 0.0 - - 10 - - - -
18/06:00am 17.4 ESE 1 3 1013.1 - 0.0 - - 10 - - - -
18/05:30am 17.5 ESE 4 4 1012.5 - 0.0 - - 10 - - - -
18/05:00am 17.5 E 3 5 1012.3 - 0.0 - - 10 - - - -
18/04:30am 17.6 E 3 4 1012.0 - 0.0 - - 10 - - - -
18/04:00am 17.7 E 3 4 1011.7 - 0.0 - - 10 - - - -
18/03:30am 17.8 E 4 4 1011.7 - 0.0 - - 10 - - - -
18/03:00am 18.3 E 4 4 1011.7 - 0.0 - - 10 - - - -
18/02:30am 18.5 CALM 0 4 1011.7 - 0.0 - - 10 - - - -
18/02:00am 18.4 CALM 0 0 1012.0 - 0.0 - - 10 - - - -
18/01:30am 18.6 E 4 4 1012.1 - 0.0 - - 10 - - - -
18/01:00am 19.2 CALM 0 0 1012.4 - 0.0 - - 10 - - - -
18/12:30am 19.6 CALM 0 0 1012.6 - 0.0 - - 10 - - - -
18/12:00am 19.9 CALM 0 0 1012.6 - 0.0 - - 10 - - - -
 
Date/Time
CST
Temp
°C
Wind Pressure Rain since
9am
mm
Weather Cloud Vis
km
Sea
Height
m
Swell
Dir  Spd
kts
Gust
kts
hPa Trend Height
m
Period
s
Dir
17/11:30pm 20.0 CALM 0 0 1012.6 - 0.0 - - 10 - - - -
17/11:00pm 20.3 CALM 0 0 1012.6 - 0.0 - - 10 - - - -
17/10:30pm 20.7 CALM 0 0 1012.8 - 0.0 - - 10 - - - -
17/10:00pm 21.6 CALM 0 0 1012.8 - 0.0 - - 10 - - - -
17/09:30pm 22.0 CALM 0 0 1012.7 - 0.0 - - 10 - - - -
17/09:00pm 22.8 CALM 0 2 1012.6 - 0.0 - - 10 - - - -
17/08:30pm 23.4 ESE 3 5 1012.3 - 0.0 - - 10 - - - -
17/08:00pm 24.3 E 3 4 1012.1 - 0.0 - - 10 - - - -
17/07:30pm 25.3 ENE 5 6 1011.8 - 0.0 - - 10 - - - -
17/07:00pm 25.9 ENE 6 8 1011.6 - 0.0 - - 10 - - - -
17/06:30pm 26.5 ENE 7 9 1011.4 - 0.0 - - 10 - - - -
17/06:00pm 27.4 E 9 11 1011.0 - 0.0 - - 10 - - - -
17/05:30pm 28.1 ESE 9 13 1010.8 - 0.0 - - 10 - - - -
17/05:00pm 28.9 E 11 14 1010.7 - 0.0 - - 10 - - - -
17/04:30pm 29.1 E 10 15 1010.6 - 0.0 - - 10 - - - -
17/04:00pm 30.6 E 8 13 1010.5 - 0.0 - Partly cloudy 10 - - - -
17/03:30pm 30.8 ENE 9 14 1010.5 - 0.0 - Partly cloudy 10 - - - -
17/03:00pm 30.2 E 10 15 1010.7 - 0.0 - Partly cloudy 10 - - - -
17/02:30pm 30.8 E 7 11 1010.9 - 0.0 - Partly cloudy 10 - - - -
17/02:00pm 31.0 ENE 7 13 1011.2 - 0.0 - Partly cloudy 10 - - - -
17/01:30pm 30.9 ESE 7 12 1011.6 - 0.0 - Partly cloudy 10 - - - -
17/01:00pm 30.5 E 9 18 1012.0 - 0.0 - Partly cloudy 10 - - - -
17/12:30pm 31.1 E 9 14 1012.4 - 0.0 - Partly cloudy 10 - - - -
17/12:00pm 30.1 E 11 17 1012.8 - 0.0 - - 10 - - - -
17/11:30am 30.5 ENE 11 15 1013.2 - 0.0 - - 10 - - - -
17/11:00am 30.6 ENE 13 19 1013.2 - 0.0 - - 10 - - - -
17/10:30am 30.8 ENE 13 18 1013.2 - 0.0 - - 10 - - - -
17/10:00am 29.8 ESE 9 13 1013.2 - 0.0 - - 10 - - - -
17/09:30am 28.7 ESE 5 8 1013.2 - 0.0 - - 10 - - - -
17/09:00am 26.2 SE 3 4 1013.0 - 0.0 - - 10 - - - -
17/08:30am 23.3 CALM 0 0 1012.8 - 0.0 - - 10 - - - -
17/08:00am 20.5 CALM 0 0 1012.6 - 0.0 - Partly cloudy 10 - - - -
17/07:54am 19.8 CALM 0 0 1012.5 - 0.0 - Partly cloudy 10 - - - -
17/07:33am 17.8 CALM 0 0 1012.4 - 0.0 - Cloudy 10 - - - -
17/07:30am 17.6 CALM 0 0 1012.4 - 0.0 - Cloudy 10 - - - -
17/07:11am 16.6 CALM 0 0 1012.2 - 0.0 - Cloudy 5 - - - -
17/07:00am 16.3 CALM 0 0 1012.1 - 0.0 - Partly cloudy 10 - - - -
17/06:46am 16.1 CALM 0 0 1011.9 - 0.0 - Cloudy 10 - - - -
17/06:30am 16.3 CALM 0 0 1011.7 - 0.0 - Cloudy 1 - - - -
17/06:09am 16.5 E 3 4 1011.5 - 0.0 - Cloudy 5 - - - -
17/06:00am 16.5 E 2 4 1011.5 - 0.0 - Cloudy 10 - - - -
17/05:41am 16.3 E 2 3 1011.3 - 0.0 - Cloudy 10 - - - -
17/05:30am 16.5 E 2 3 1011.1 - 0.0 - Cloudy 5 - - - -
17/05:00am 17.0 CALM 0 0 1010.9 - 0.0 - Partly cloudy 4 - - - -
17/04:59am 17.0 CALM 0 0 1010.9 - 0.0 - Partly cloudy 4 - - - -
17/04:48am 17.2 CALM 0 0 1010.9 - 0.0 - Partly cloudy 10 - - - -
17/04:30am 16.9 E 1 3 1010.8 - 0.0 - - 10 - - - -
17/04:00am 17.2 E 3 4 1010.7 - 0.0 - - 10 - - - -
17/03:30am 17.5 CALM 0 0 1010.7 - 0.0 - - 10 - - - -
17/03:00am 17.8 E 2 4 1010.8 - 0.0 - - 10 - - - -
17/02:30am 18.1 E 3 3 1010.9 - 0.0 - - 10 - - - -
17/02:00am 18.3 CALM 0 0 1011.2 - 0.0 - - 10 - - - -
17/01:30am 18.6 CALM 0 0 1011.4 - 0.0 - - 10 - - - -
17/01:00am 19.0 CALM 0 0 1011.6 - 0.0 - - 10 - - - -
17/12:30am 19.2 CALM 0 0 1011.9 - 0.0 - - 10 - - - -
17/12:00am 19.7 CALM 0 0 1012.0 - 0.0 - - 10 - - - -
 
Date/Time
CST
Temp
°C
Wind Pressure Rain since
9am
mm
Weather Cloud Vis
km
Sea
Height
m
Swell
Dir  Spd
kts
Gust
kts
hPa Trend Height
m
Period
s
Dir
16/11:30pm 20.0 CALM 0 0 1012.2 - 0.0 - - 10 - - - -
16/11:00pm 20.4 CALM 0 0 1012.2 - 0.0 - - 10 - - - -
16/10:30pm 21.0 CALM 0 0 1012.4 - 0.0 - - 10 - - - -
16/10:00pm 21.5 CALM 0 0 1012.2 - 0.0 - - 10 - - - -
16/09:30pm 21.8 E 1 2 1012.0 - 0.0 - - 10 - - - -
16/09:00pm 22.5 E 3 4 1011.7 - 0.0 - - 10 - - - -
16/08:30pm 23.2 CALM 0 0 1011.5 - 0.0 - - 10 - - - -
16/08:00pm 24.0 CALM 0 0 1011.2 - 0.0 - - 10 - - - -
16/07:30pm 24.7 ESE 3 4 1010.9 - 0.0 - - 10 - - - -
16/07:00pm 25.6 E 6 7 1010.7 - 0.0 - - 10 - - - -
16/06:30pm 26.3 E 8 12 1010.4 - 0.0 - - 10 - - - -
16/06:00pm 27.4 ENE 7 10 1010.1 - 0.0 - Mostly clear 10 - - - -
16/05:30pm 28.7 ENE 7 9 1009.8 - 0.0 - Partly cloudy 10 - - - -
16/05:00pm 29.4 W 5 8 1009.4 - 0.0 - Partly cloudy 10 - - - -
16/04:30pm 29.1 W 7 12 1009.1 - 0.0 - Partly cloudy 10 - - - -
16/04:00pm 29.2 WSW 7 12 1009.1 - 0.0 - Partly cloudy 10 - - - -
16/03:30pm 29.6 WSW 8 13 1009.2 - 0.0 - Partly cloudy 10 - - - -
16/03:00pm 30.0 W 8 11 1009.2 - 0.0 - Partly cloudy 10 - - - -
16/02:30pm 29.1 WSW 9 11 1009.3 - 0.0 - Partly cloudy 10 - - - -
16/02:00pm 30.6 W 9 14 1009.6 - 0.0 - Partly cloudy 10 - - - -
16/01:30pm 30.3 WSW 7 12 1010.1 - 0.0 - Partly cloudy 10 - - - -
16/01:00pm 30.6 SSW 4 6 1010.5 - 0.0 - Cloudy 10 - - - -
16/12:30pm 31.7 E 7 13 1010.8 - 0.0 - Partly cloudy 10 - - - -
16/12:00pm 31.8 ESE 7 11 1011.3 - 0.0 - Mostly clear 10 - - - -
16/11:30am 30.9 ENE 9 13 1011.8 - 0.0 - Partly cloudy 10 - - - -
16/11:00am 30.8 ENE 7 13 1012.3 - 0.0 - Partly cloudy 10 - - - -
16/10:30am 30.5 E 9 12 1012.6 - 0.0 - - 10 - - - -
16/10:00am 29.5 ENE 12 15 1012.9 - 0.0 - - 10 - - - -
16/09:30am 29.2 ENE 9 13 1012.9 - 0.0 - - 10 - - - -
16/09:00am 28.2 ENE 7 9 1013.0 - 0.0 - - 10 - - - -
16/08:30am 26.0 ENE 6 8 1012.9 - 0.0 - - 10 - - - -
16/08:00am 23.0 E 5 6 1012.6 - 0.0 - - 10 - - - -
16/07:30am 20.3 ESE 5 5 1012.4 - 0.0 - - 10 - - - -
16/07:00am 17.4 E 2 4 1011.9 - 0.0 - Partly cloudy 10 - - - -
16/06:58am 17.4 E 1 4 1011.9 - 0.0 - Partly cloudy 10 - - - -
16/06:30am 17.3 CALM 0 0 1011.7 - 0.0 - Partly cloudy 10 - - - -
16/06:29am 17.3 CALM 0 0 1011.7 - 0.0 - Partly cloudy 10 - - - -
16/06:00am 17.6 CALM 0 0 1011.5 - 0.0 - - 10 - - - -
16/05:30am 17.8 CALM 0 0 1011.2 - 0.0 - - 10 - - - -
16/05:00am 18.2 CALM 0 0 1011.0 - 0.0 - - 10 - - - -
16/04:30am 18.0 E 4 4 1010.6 - 0.0 - - 10 - - - -
16/04:00am 18.0 E 4 5 1010.7 - 0.0 - - 10 - - - -
16/03:30am 18.6 CALM 0 0 1010.9 - 0.0 - - 10 - - - -
16/03:00am 18.8 CALM 0 0 1011.1 - 0.0 - - 10 - - - -
16/02:30am 18.8 CALM 0 0 1011.3 - 0.0 - - 10 - - - -
16/02:00am 19.1 CALM 0 0 1011.5 - 0.0 - - 10 - - - -
16/01:30am 19.2 CALM 0 0 1011.8 - 0.0 - - 10 - - - -
16/01:00am 19.7 CALM 0 0 1012.0 - 0.0 - - 10 - - - -
16/12:30am 20.2 CALM 0 0 1012.3 - 0.0 - - 10 - - - -
16/12:00am 20.0 E 3 4 1012.5 - 0.0 - - 10 - - - -
 
Date/Time
CST
Temp
°C
Wind Pressure Rain since
9am
mm
Weather Cloud Vis
km
Sea
Height
m
Swell
Dir  Spd
kts
Gust
kts
hPa Trend Height
m
Period
s
Dir
15/11:30pm 20.3 CALM 0 0 1012.8 - 0.0 - - 10 - - - -
15/11:00pm 20.8 E 3 4 1012.9 - 0.0 - - 10 - - - -
15/10:30pm 21.2 E 3 4 1013.1 - 0.0 - - 10 - - - -
15/10:00pm 21.8 E 3 4 1013.1 - 0.0 - - 10 - - - -
15/09:30pm 22.4 E 4 4 1012.9 - 0.0 - - 10 - - - -
15/09:00pm 22.9 E 3 4 1012.8 - 0.0 - - 10 - - - -
15/08:30pm 23.5 E 4 5 1012.6 - 0.0 - - 10 - - - -
15/08:00pm 24.5 E 4 5 1012.4 - 0.0 - - 10 - - - -
15/07:30pm 25.2 ENE 5 8 1012.2 - 0.0 - - 10 - - - -
15/07:00pm 25.6 NE 4 5 1011.9 - 0.0 - - 10 - - - -
15/06:30pm 26.2 N 4 5 1011.7 - 0.0 - - 10 - - - -

Other Formats:

Comma delimited format used in spreadsheet applications
http://www.bom.gov.au/fwo/IDD60701/IDD60701.94153.axf

JavaScript Object Notation format (JSON) in row-major order
http://www.bom.gov.au/fwo/IDD60701/IDD60701.94153.json